Time;durP1;ratioP1;P1;durP2;ratioP2;P2;SDS_P1;SDS_P2;PMS_P1;PMS_P2;Temp;Humidity;BMP_temperature;BMP_pressure;BME280_temperature;BME280_humidity;BME280_pressure;Samples;Min_cycle;Max_cycle;Signal;HPM_P1;HPM_P2
2023/07/28 00:01:28;;;;;;;34.45;12.70;;;18.40;99.90;;;;;;4949930;28;20054;-49
2023/07/28 00:03:54;;;;;;;34.08;13.00;;;18.40;99.90;;;;;;4940536;28;20038;-50
2023/07/28 00:06:20;;;;;;;36.35;12.63;;;18.40;99.90;;;;;;4935348;28;20378;-50
2023/07/28 00:08:45;;;;;;;30.88;13.23;;;18.40;99.90;;;;;;4938531;28;20185;-51
2023/07/28 00:11:13;;;;;;;31.38;12.93;;;18.40;99.90;;;;;;4936081;28;20050;-48
2023/07/28 00:13:39;;;;;;;33.72;13.00;;;18.40;99.90;;;;;;4958970;28;20617;-49
2023/07/28 00:16:06;;;;;;;30.73;12.15;;;18.40;99.90;;;;;;4942825;28;20051;-48
2023/07/28 00:18:31;;;;;;;30.27;12.23;;;18.40;99.90;;;;;;4955638;28;20081;-49
2023/07/28 00:20:57;;;;;;;26.38;11.68;;;18.40;99.90;;;;;;4952155;28;20035;-50
2023/07/28 00:23:23;;;;;;;24.13;10.88;;;18.40;99.90;;;;;;4953205;28;20422;-49
2023/07/28 00:25:49;;;;;;;35.58;12.35;;;18.40;99.90;;;;;;4956745;28;20098;-48
2023/07/28 00:28:15;;;;;;;26.20;11.30;;;18.40;99.90;;;;;;4954324;28;20838;-48
2023/07/28 00:30:41;;;;;;;25.63;11.15;;;18.40;99.90;;;;;;4954429;28;20050;-49
2023/07/28 00:33:06;;;;;;;21.23;11.27;;;18.40;99.90;;;;;;4951524;28;20070;-48
2023/07/28 00:35:32;;;;;;;25.85;12.05;;;18.40;99.90;;;;;;4937194;28;20046;-48
2023/07/28 00:37:58;;;;;;;29.60;12.05;;;18.40;99.90;;;;;;4950735;28;20046;-48
2023/07/28 00:40:24;;;;;;;27.90;12.27;;;18.40;99.90;;;;;;4949290;28;20588;-49
2023/07/28 00:42:50;;;;;;;27.58;12.90;;;18.40;99.90;;;;;;4947968;28;20428;-50
2023/07/28 00:45:16;;;;;;;27.63;13.00;;;18.40;99.90;;;;;;4963151;28;20039;-50
2023/07/28 00:47:42;;;;;;;25.83;12.82;;;18.40;99.90;;;;;;4947148;28;20042;-50
2023/07/28 00:50:11;;;;;;;32.25;13.13;;;18.40;99.90;;;;;;4932181;28;20050;-48
2023/07/28 00:52:38;;;;;;;33.08;13.20;;;18.40;99.90;;;;;;4949390;28;20043;-48
2023/07/28 00:55:05;;;;;;;34.97;12.77;;;18.40;99.90;;;;;;4948565;28;20047;-49
2023/07/28 00:57:31;;;;;;;28.25;13.23;;;18.40;99.90;;;;;;4949828;28;20031;-48
2023/07/28 00:59:57;;;;;;;27.50;13.30;;;18.40;99.90;;;;;;4951523;28;20246;-50
2023/07/28 01:02:23;;;;;;;31.35;14.63;;;18.40;99.90;;;;;;4951062;28;20936;-53
2023/07/28 01:04:49;;;;;;;29.10;13.60;;;18.40;99.90;;;;;;4963935;28;20047;-47
2023/07/28 01:07:34;;;;;;;29.02;14.05;;;18.40;99.90;;;;;;4948731;28;20043;-47
2023/07/28 01:10:08;;;;;;;28.70;13.73;;;18.40;99.90;;;;;;4948897;28;20042;-49
2023/07/28 01:12:34;;;;;;;30.45;13.52;;;18.40;99.90;;;;;;4930491;28;20524;-49
2023/07/28 01:15:00;;;;;;;30.42;13.55;;;18.40;99.90;;;;;;4938846;28;20042;-48
2023/07/28 01:17:26;;;;;;;31.48;13.98;;;18.40;99.90;;;;;;4918854;28;20054;-50
2023/07/28 01:19:52;;;;;;;32.30;13.57;;;18.40;99.90;;;;;;4951891;28;20122;-50
2023/07/28 01:22:27;;;;;;;30.55;14.38;;;18.40;99.90;;;;;;4943482;28;20428;-49
2023/07/28 01:25:14;;;;;;;33.00;14.30;;;18.40;99.90;;;;;;4950354;28;20162;-50
2023/07/28 01:27:42;;;;;;;29.67;14.30;;;18.40;99.90;;;;;;4948311;28;20057;-51
2023/07/28 01:30:09;;;;;;;37.97;14.10;;;18.40;99.90;;;;;;4934307;28;20317;-49
2023/07/28 01:32:36;;;;;;;37.75;14.05;;;18.40;99.90;;;;;;4949710;28;20074;-48
2023/07/28 01:35:03;;;;;;;35.65;14.65;;;18.40;99.90;;;;;;4955217;28;20105;-50
2023/07/28 01:37:29;;;;;;;32.78;15.05;;;18.40;99.90;;;;;;4952765;28;20031;-51
2023/07/28 01:39:55;;;;;;;38.65;15.68;;;18.40;99.90;;;;;;4954467;28;20047;-49
2023/07/28 01:42:20;;;;;;;31.75;14.13;;;18.40;99.90;;;;;;4940056;28;20051;-50
2023/07/28 01:44:46;;;;;;;34.60;14.45;;;18.40;99.90;;;;;;4953364;28;20047;-48
2023/07/28 01:47:12;;;;;;;33.97;13.15;;;18.40;99.90;;;;;;4950563;28;20045;-48
2023/07/28 01:49:38;;;;;;;34.72;13.32;;;18.40;99.90;;;;;;4953057;28;20051;-50
2023/07/28 01:52:04;;;;;;;27.98;13.13;;;18.40;99.90;;;;;;4950289;28;20451;-50
2023/07/28 01:54:30;;;;;;;25.05;13.77;;;18.40;99.90;;;;;;4937054;28;20626;-48
2023/07/28 01:56:55;;;;;;;30.55;13.73;;;18.40;99.90;;;;;;4952490;28;20039;-49
2023/07/28 01:59:21;;;;;;;27.15;13.82;;;18.40;99.90;;;;;;4954122;28;20601;-49
2023/07/28 02:01:47;;;;;;;29.83;14.05;;;18.40;99.90;;;;;;4957254;28;20134;-48
2023/07/28 02:04:13;;;;;;;28.65;13.73;;;18.40;99.90;;;;;;4954548;28;20043;-50
2023/07/28 02:06:38;;;;;;;28.27;13.70;;;18.40;99.90;;;;;;4954237;28;20076;-49
2023/07/28 02:09:04;;;;;;;25.17;12.77;;;18.40;99.90;;;;;;4951480;28;20064;-53
2023/07/28 02:11:30;;;;;;;25.08;12.57;;;18.40;99.90;;;;;;4954223;28;20038;-49
2023/07/28 02:13:56;;;;;;;27.38;13.07;;;18.40;99.90;;;;;;4941236;28;20094;-49
2023/07/28 02:16:21;;;;;;;23.80;13.15;;;18.40;99.90;;;;;;4955566;28;20041;-51
2023/07/28 02:18:47;;;;;;;22.02;12.90;;;18.30;99.90;;;;;;4954217;28;20070;-49
2023/07/28 02:21:13;;;;;;;25.50;13.70;;;18.30;99.90;;;;;;4956241;28;20039;-50
2023/07/28 02:23:39;;;;;;;24.92;12.90;;;18.40;99.90;;;;;;4953491;28;20046;-50
2023/07/28 02:26:04;;;;;;;21.60;13.02;;;18.40;99.90;;;;;;4940236;28;20086;-50
2023/07/28 02:28:30;;;;;;;23.70;12.90;;;18.30;99.90;;;;;;4953593;28;20141;-50
2023/07/28 02:30:56;;;;;;;24.48;12.98;;;18.30;99.90;;;;;;4951923;28;20490;-51
2023/07/28 02:33:22;;;;;;;27.65;13.23;;;18.30;99.90;;;;;;4954682;28;20035;-52
2023/07/28 02:35:47;;;;;;;23.67;13.13;;;18.40;99.90;;;;;;4957328;28;20047;-49
2023/07/28 02:38:13;;;;;;;24.65;13.48;;;18.40;99.90;;;;;;4953810;28;20392;-48
2023/07/28 02:40:39;;;;;;;34.15;14.68;;;18.40;99.90;;;;;;4955699;28;20850;-48
2023/07/28 02:43:04;;;;;;;38.45;15.68;;;18.30;99.90;;;;;;4952992;28;20047;-49
2023/07/28 02:45:30;;;;;;;34.15;14.88;;;18.40;99.90;;;;;;4953239;28;20055;-47
2023/07/28 02:47:56;;;;;;;32.70;15.30;;;18.40;99.90;;;;;;4954233;28;20046;-48
2023/07/28 02:50:23;;;;;;;40.75;14.98;;;18.40;99.90;;;;;;4953546;28;20416;-48
2023/07/28 02:52:48;;;;;;;35.20;15.43;;;18.30;99.90;;;;;;4934382;28;20493;-49
2023/07/28 02:55:14;;;;;;;32.75;14.60;;;18.40;99.90;;;;;;4952682;28;20054;-52
2023/07/28 02:57:40;;;;;;;35.42;15.38;;;18.40;99.90;;;;;;4945019;28;20066;-49
2023/07/28 03:00:10;;;;;;;36.38;15.10;;;18.40;99.90;;;;;;4953523;28;20078;-51
2023/07/28 03:02:36;;;;;;;34.45;15.82;;;18.30;99.90;;;;;;4963161;28;20438;-48
2023/07/28 03:05:02;;;;;;;34.88;15.40;;;18.40;99.90;;;;;;4953923;28;20130;-49
2023/07/28 03:07:27;;;;;;;31.65;14.77;;;18.40;99.90;;;;;;4969691;28;20098;-49
2023/07/28 03:09:53;;;;;;;32.78;14.82;;;18.40;99.90;;;;;;4949592;28;20067;-51
2023/07/28 03:12:19;;;;;;;32.13;14.43;;;18.40;99.90;;;;;;4953823;28;20050;-49
2023/07/28 03:14:45;;;;;;;34.13;14.40;;;18.30;99.90;;;;;;4952329;28;20046;-52
2023/07/28 03:17:10;;;;;;;27.13;14.18;;;18.30;99.90;;;;;;4954571;28;20105;-51
2023/07/28 03:19:36;;;;;;;36.70;15.25;;;18.30;99.90;;;;;;4966931;28;20043;-51
2023/07/28 03:22:02;;;;;;;28.48;14.73;;;18.30;99.90;;;;;;4929577;28;20073;-49
2023/07/28 03:24:27;;;;;;;34.08;14.63;;;18.30;99.90;;;;;;4952985;28;20054;-53
2023/07/28 03:26:53;;;;;;;29.52;14.05;;;18.30;99.90;;;;;;4953439;28;20647;-50
2023/07/28 03:29:19;;;;;;;30.67;14.05;;;18.30;99.90;;;;;;4966442;28;20081;-52
2023/07/28 03:31:45;;;;;;;24.88;14.82;;;18.30;99.90;;;;;;4951990;28;20085;-54
2023/07/28 03:34:11;;;;;;;32.60;14.25;;;18.30;99.90;;;;;;4954610;28;20628;-51
2023/07/28 03:36:36;;;;;;;27.40;14.15;;;18.30;99.90;;;;;;4957514;28;20114;-51
2023/07/28 03:39:02;;;;;;;28.33;13.30;;;18.30;99.90;;;;;;4954488;28;20953;-50
2023/07/28 03:41:28;;;;;;;41.35;14.15;;;18.30;99.90;;;;;;4956333;28;20038;-54
2023/07/28 03:43:54;;;;;;;34.10;13.45;;;18.30;99.90;;;;;;4952049;28;20763;-54
2023/07/28 03:46:19;;;;;;;27.23;11.98;;;18.30;99.90;;;;;;4953191;28;20580;-53
2023/07/28 03:48:45;;;;;;;27.17;12.82;;;18.30;99.90;;;;;;4954032;28;20047;-52
2023/07/28 03:51:11;;;;;;;27.48;11.98;;;18.30;99.90;;;;;;4959664;28;20046;-51
2023/07/28 03:53:36;;;;;;;35.25;12.27;;;18.30;99.90;;;;;;4953166;28;20042;-53
2023/07/28 03:56:03;;;;;;;29.13;11.25;;;18.30;99.90;;;;;;4957530;28;20047;-52
2023/07/28 03:58:29;;;;;;;25.80;10.27;;;18.30;99.90;;;;;;4955201;28;20038;-51
2023/07/28 04:00:55;;;;;;;27.05;10.55;;;18.30;99.90;;;;;;4955416;28;20084;-53
2023/07/28 04:03:21;;;;;;;24.88;10.52;;;18.30;99.90;;;;;;4948968;28;20516;-54
2023/07/28 04:05:46;;;;;;;25.95;9.43;;;18.30;99.90;;;;;;4953417;28;20057;-49
2023/07/28 04:08:12;;;;;;;24.77;9.50;;;18.30;99.90;;;;;;4952405;28;20047;-50
2023/07/28 04:10:38;;;;;;;25.38;9.70;;;18.30;99.90;;;;;;4955168;28;20098;-51
2023/07/28 04:13:04;;;;;;;25.67;9.63;;;18.30;99.90;;;;;;4952213;28;20063;-53
2023/07/28 04:15:29;;;;;;;31.52;9.48;;;18.30;99.90;;;;;;4950918;28;20542;-51
2023/07/28 04:17:55;;;;;;;24.65;9.02;;;18.30;99.90;;;;;;4950602;28;20068;-50
2023/07/28 04:20:21;;;;;;;27.25;9.85;;;18.30;99.90;;;;;;4946551;28;20035;-53
2023/07/28 04:22:47;;;;;;;33.00;8.63;;;18.30;99.90;;;;;;4950652;28;20070;-53
2023/07/28 04:25:12;;;;;;;24.70;8.77;;;18.30;99.90;;;;;;4953201;28;20047;-53
2023/07/28 04:27:38;;;;;;;33.95;9.85;;;18.30;99.90;;;;;;4949677;28;20063;-53
2023/07/28 04:30:04;;;;;;;24.55;9.40;;;18.30;99.90;;;;;;4951497;28;20093;-51
2023/07/28 04:32:30;;;;;;;24.08;9.25;;;18.30;99.90;;;;;;4952484;28;20048;-51
2023/07/28 04:34:56;;;;;;;30.33;9.23;;;18.30;99.90;;;;;;4952147;28;20473;-53
2023/07/28 04:37:22;;;;;;;27.38;10.65;;;18.40;99.90;;;;;;4947303;28;20049;-52
2023/07/28 04:39:48;;;;;;;29.05;9.93;;;18.40;99.90;;;;;;4950304;28;20039;-50
2023/07/28 04:42:14;;;;;;;25.17;10.32;;;18.40;99.90;;;;;;4952519;28;20145;-51
2023/07/28 04:44:40;;;;;;;25.20;9.88;;;18.40;99.90;;;;;;4950555;28;20050;-50
2023/07/28 04:47:06;;;;;;;17.98;9.57;;;18.40;99.90;;;;;;4952022;28;20481;-51
2023/07/28 04:49:32;;;;;;;20.10;9.48;;;18.40;99.90;;;;;;4947885;28;20054;-52
2023/07/28 04:51:57;;;;;;;17.60;9.20;;;18.40;99.90;;;;;;4949942;28;20126;-50
2023/07/28 04:54:23;;;;;;;21.23;9.27;;;18.40;99.90;;;;;;4952839;28;20097;-52
2023/07/28 04:56:52;;;;;;;18.92;8.15;;;18.40;99.90;;;;;;4945083;28;20150;-54
2023/07/28 04:59:18;;;;;;;22.98;9.25;;;18.40;99.90;;;;;;4951147;28;20165;-52
2023/07/28 05:01:44;;;;;;;23.90;10.15;;;18.40;99.90;;;;;;4951835;28;20085;-53
2023/07/28 05:04:10;;;;;;;21.67;8.73;;;18.50;99.90;;;;;;4926465;28;20122;-51
2023/07/28 05:06:36;;;;;;;23.60;9.50;;;18.40;99.90;;;;;;4951495;28;20043;-51
2023/07/28 05:09:02;;;;;;;19.73;9.10;;;18.50;99.90;;;;;;4951028;28;20102;-51
2023/07/28 05:11:27;;;;;;;18.77;9.48;;;18.50;99.90;;;;;;4949250;28;20125;-52
2023/07/28 05:13:53;;;;;;;20.88;9.50;;;18.50;99.90;;;;;;4952405;28;20054;-54
2023/07/28 05:16:19;;;;;;;18.65;9.18;;;18.50;99.90;;;;;;4946309;28;20042;-51
2023/07/28 05:18:44;;;;;;;22.23;9.90;;;18.40;99.90;;;;;;4947986;28;20432;-52
2023/07/28 05:21:10;;;;;;;21.85;9.75;;;18.50;99.90;;;;;;4954509;28;20096;-54
2023/07/28 05:23:36;;;;;;;24.10;9.30;;;18.50;99.90;;;;;;4950490;28;20424;-51
2023/07/28 05:26:02;;;;;;;16.92;8.57;;;18.50;99.90;;;;;;4946449;28;20070;-51
2023/07/28 05:28:27;;;;;;;16.70;7.85;;;18.50;99.90;;;;;;4943647;28;20078;-51
2023/07/28 05:30:53;;;;;;;22.02;8.10;;;18.50;99.90;;;;;;4946049;28;21000;-51
2023/07/28 05:33:19;;;;;;;16.20;7.65;;;18.50;99.90;;;;;;4927403;28;20039;-53
2023/07/28 05:35:44;;;;;;;14.48;7.03;;;18.50;99.90;;;;;;4946911;28;20035;-54
2023/07/28 05:38:10;;;;;;;20.65;7.88;;;18.50;99.90;;;;;;4949615;28;20067;-55
2023/07/28 05:40:35;;;;;;;21.77;7.82;;;18.50;99.90;;;;;;4945705;28;20414;-50
2023/07/28 05:43:02;;;;;;;20.08;8.05;;;18.50;99.90;;;;;;4934852;28;20042;-55
2023/07/28 05:45:28;;;;;;;17.80;7.80;;;18.50;99.90;;;;;;4949884;28;20047;-53
2023/07/28 05:47:54;;;;;;;21.35;8.30;;;18.50;99.90;;;;;;4950502;28;20046;-50
2023/07/28 05:50:20;;;;;;;17.02;7.88;;;18.50;99.90;;;;;;4955675;28;20035;-54
2023/07/28 05:52:46;;;;;;;21.42;7.95;;;18.60;99.90;;;;;;4950950;28;20065;-53
2023/07/28 05:55:12;;;;;;;14.52;7.47;;;18.60;99.90;;;;;;4941495;28;20047;-51
2023/07/28 05:57:38;;;;;;;17.70;7.85;;;18.60;99.90;;;;;;4939186;28;20058;-50
2023/07/28 06:00:04;;;;;;;16.83;7.80;;;18.60;99.90;;;;;;4942865;28;20043;-53
2023/07/28 06:02:30;;;;;;;15.98;7.30;;;18.60;99.90;;;;;;4936997;28;20485;-53
2023/07/28 06:04:55;;;;;;;18.20;7.45;;;18.60;99.90;;;;;;4932880;28;20070;-54
2023/07/28 06:07:21;;;;;;;16.13;8.32;;;18.70;99.90;;;;;;4935093;28;20057;-53
2023/07/28 06:09:47;;;;;;;11.85;7.72;;;18.70;99.90;;;;;;4946005;28;20080;-50
2023/07/28 06:12:13;;;;;;;12.70;7.70;;;18.70;99.90;;;;;;4945196;28;20043;-52
2023/07/28 06:14:39;;;;;;;15.35;7.90;;;18.70;99.90;;;;;;4951499;28;20118;-50
2023/07/28 06:17:05;;;;;;;15.15;8.60;;;18.70;99.90;;;;;;4947213;28;20032;-50
2023/07/28 06:19:30;;;;;;;14.00;8.43;;;18.70;99.90;;;;;;4948142;28;20039;-52
2023/07/28 06:21:56;;;;;;;14.30;7.45;;;18.80;99.90;;;;;;4954730;28;20097;-54
2023/07/28 06:24:22;;;;;;;14.57;8.50;;;18.80;99.90;;;;;;4934596;28;20087;-51
2023/07/28 06:26:48;;;;;;;13.20;8.70;;;18.80;99.90;;;;;;4951652;28;20166;-52
2023/07/28 06:29:13;;;;;;;17.10;8.25;;;18.80;99.90;;;;;;4952047;28;20488;-53
2023/07/28 06:31:39;;;;;;;13.13;9.27;;;18.90;99.90;;;;;;4932160;28;20477;-53
2023/07/28 06:34:05;;;;;;;13.52;8.82;;;18.90;99.90;;;;;;4946668;28;20422;-50
2023/07/28 06:36:31;;;;;;;15.23;8.48;;;18.90;99.90;;;;;;4946768;28;20050;-51
2023/07/28 06:38:59;;;;;;;13.30;8.77;;;19.00;99.90;;;;;;4950497;28;20807;-53
2023/07/28 06:41:25;;;;;;;14.18;9.85;;;19.00;99.90;;;;;;4949667;28;20039;-51
2023/07/28 06:43:50;;;;;;;13.95;10.57;;;19.00;99.90;;;;;;4947980;28;20140;-52
2023/07/28 06:46:16;;;;;;;13.30;11.23;;;19.00;99.90;;;;;;4953345;28;20047;-55
2023/07/28 06:48:42;;;;;;;13.40;10.68;;;19.10;99.90;;;;;;4958318;28;20102;-53
2023/07/28 06:51:09;;;;;;;12.35;10.40;;;19.00;99.90;;;;;;4950682;28;20047;-53
2023/07/28 06:53:35;;;;;;;12.65;11.10;;;19.00;99.90;;;;;;4950350;28;20189;-52
2023/07/28 06:56:01;;;;;;;11.35;10.15;;;19.10;99.90;;;;;;4953721;28;20054;-50
2023/07/28 06:58:27;;;;;;;15.60;10.15;;;19.00;99.90;;;;;;4955679;28;20543;-51
2023/07/28 07:00:55;;;;;;;13.52;9.82;;;19.10;99.90;;;;;;4958521;28;20039;-55
2023/07/28 07:03:22;;;;;;;11.57;9.25;;;19.00;99.90;;;;;;4956619;28;20094;-51
2023/07/28 07:05:48;;;;;;;12.18;9.98;;;19.10;99.90;;;;;;4958657;28;20039;-51
2023/07/28 07:08:14;;;;;;;10.23;7.75;;;19.10;99.90;;;;;;4953269;28;20062;-53
2023/07/28 07:10:39;;;;;;;9.88;7.75;;;19.20;99.90;;;;;;4951204;28;20039;-50
2023/07/28 07:13:05;;;;;;;13.88;8.57;;;19.20;99.90;;;;;;4950073;28;20117;-52
2023/07/28 07:15:35;;;;;;;10.95;8.95;;;19.20;99.90;;;;;;4909333;28;20403;-53
2023/07/28 07:18:01;;;;;;;11.02;8.43;;;19.20;99.90;;;;;;4937819;28;20042;-50
2023/07/28 07:20:26;;;;;;;11.48;8.43;;;19.30;99.90;;;;;;4946460;28;20397;-54
2023/07/28 07:22:52;;;;;;;9.90;7.70;;;19.30;99.90;;;;;;4946536;28;20042;-52
2023/07/28 07:25:18;;;;;;;9.20;6.93;;;19.40;99.90;;;;;;4966488;28;20050;-53
2023/07/28 07:27:45;;;;;;;9.25;7.28;;;19.40;99.90;;;;;;4946552;28;20462;-51
2023/07/28 07:30:11;;;;;;;10.00;7.20;;;19.40;99.90;;;;;;4945048;28;20480;-53
2023/07/28 07:32:36;;;;;;;8.98;7.03;;;19.50;99.90;;;;;;4947201;28;20102;-52
2023/07/28 07:35:02;;;;;;;8.00;7.20;;;19.60;99.90;;;;;;4953285;28;20101;-55
2023/07/28 07:37:28;;;;;;;8.60;7.25;;;19.50;99.90;;;;;;4930300;28;20497;-50
2023/07/28 07:39:54;;;;;;;8.10;6.78;;;19.60;99.90;;;;;;4952776;28;20046;-54
2023/07/28 07:42:20;;;;;;;11.82;6.85;;;19.60;99.90;;;;;;4953934;28;20070;-53
2023/07/28 07:44:46;;;;;;;7.18;6.47;;;19.70;99.90;;;;;;4950285;28;20142;-51
2023/07/28 07:47:14;;;;;;;7.60;6.80;;;19.70;99.90;;;;;;4943950;28;20039;-53
2023/07/28 07:49:40;;;;;;;9.13;7.07;;;19.80;99.90;;;;;;4952373;28;20178;-50
2023/07/28 07:52:07;;;;;;;9.75;7.30;;;19.80;99.90;;;;;;4950847;28;20054;-51
2023/07/28 07:54:34;;;;;;;7.75;6.85;;;19.90;99.90;;;;;;4945582;28;20089;-52
2023/07/28 07:56:59;;;;;;;10.40;7.65;;;20.00;99.90;;;;;;4951814;28;20045;-54
2023/07/28 07:59:27;;;;;;;11.82;7.15;;;20.00;99.90;;;;;;4948523;28;20035;-50
2023/07/28 08:01:54;;;;;;;9.82;6.55;;;20.00;99.90;;;;;;4947816;28;20143;-52
2023/07/28 08:04:19;;;;;;;6.97;6.18;;;20.10;99.90;;;;;;4951168;28;20085;-51
2023/07/28 08:06:45;;;;;;;9.00;6.70;;;20.10;99.90;;;;;;4949942;28;20489;-51
2023/07/28 08:09:11;;;;;;;7.65;6.60;;;20.20;99.90;;;;;;4953722;28;20049;-51
2023/07/28 08:11:36;;;;;;;7.50;6.40;;;20.20;99.90;;;;;;4948224;28;20050;-54
2023/07/28 08:14:02;;;;;;;6.50;5.70;;;20.20;99.90;;;;;;4948471;28;20045;-53
2023/07/28 08:16:28;;;;;;;8.60;7.05;;;20.10;99.90;;;;;;4936394;28;20047;-50
2023/07/28 08:18:54;;;;;;;10.98;6.25;;;20.10;99.90;;;;;;4937962;28;21733;-52
2023/07/28 08:21:20;;;;;;;8.38;6.80;;;20.10;99.90;;;;;;4947725;28;20126;-50
2023/07/28 08:23:45;;;;;;;7.68;6.50;;;20.00;99.90;;;;;;4947088;28;20405;-50
2023/07/28 08:26:11;;;;;;;7.20;6.50;;;20.00;99.90;;;;;;4957166;28;20490;-48
2023/07/28 08:28:37;;;;;;;8.63;6.88;;;20.00;99.90;;;;;;4954901;28;20067;-48
2023/07/28 08:31:04;;;;;;;7.20;6.47;;;20.00;99.90;;;;;;4955502;28;20081;-49
2023/07/28 08:33:29;;;;;;;7.97;6.95;;;20.00;99.90;;;;;;4956532;28;20046;-50
2023/07/28 08:35:55;;;;;;;7.60;6.32;;;20.10;99.90;;;;;;4952615;28;20046;-49
2023/07/28 08:38:21;;;;;;;8.95;7.32;;;20.20;99.90;;;;;;4955951;28;20039;-53
2023/07/28 08:40:47;;;;;;;8.20;7.40;;;20.30;99.90;;;;;;4956018;28;20121;-51
2023/07/28 08:43:12;;;;;;;9.25;7.35;;;20.40;99.90;;;;;;4954358;28;20039;-52
2023/07/28 08:45:38;;;;;;;10.98;7.63;;;20.50;99.90;;;;;;4955203;28;20047;-51
2023/07/28 08:48:05;;;;;;;11.15;7.57;;;20.50;99.90;;;;;;4951679;28;20050;-49
2023/07/28 08:50:31;;;;;;;8.40;7.57;;;20.60;99.90;;;;;;4954158;28;20066;-49
2023/07/28 08:52:57;;;;;;;7.80;6.53;;;20.70;99.90;;;;;;4950382;28;20098;-49
2023/07/28 08:55:23;;;;;;;7.32;6.00;;;20.80;99.90;;;;;;4944051;28;20039;-49
2023/07/28 08:57:48;;;;;;;8.45;5.70;;;20.80;99.90;;;;;;4950603;28;21358;-49
2023/07/28 09:00:17;;;;;;;7.90;6.00;;;20.90;99.90;;;;;;4939779;28;20481;-48
2023/07/28 09:02:43;;;;;;;6.80;5.75;;;20.90;99.90;;;;;;4946925;28;20063;-52
2023/07/28 09:05:19;;;;;;;5.68;5.07;;;21.00;99.90;;;;;;4953745;28;20053;-50
2023/07/28 09:07:46;;;;;;;5.95;5.13;;;21.10;99.90;;;;;;4933289;28;20049;-49
2023/07/28 09:10:12;;;;;;;5.95;5.20;;;21.00;99.90;;;;;;4953462;28;20086;-50
2023/07/28 09:12:48;;;;;;;6.45;5.55;;;21.00;99.90;;;;;;4955586;28;20142;-52
2023/07/28 09:15:16;;;;;;;5.60;5.10;;;21.00;99.90;;;;;;4956645;28;20177;-50
2023/07/28 09:17:45;;;;;;;6.82;5.10;;;21.00;99.90;;;;;;4926834;28;20050;-50
2023/07/28 09:20:16;;;;;;;4.63;4.22;;;21.00;99.90;;;;;;4939038;28;20150;-48
2023/07/28 09:22:44;;;;;;;4.78;4.30;;;21.00;99.90;;;;;;4944591;28;20113;-48
2023/07/28 09:25:15;;;;;;;4.60;4.20;;;20.90;99.90;;;;;;4943539;28;20061;-48
2023/07/28 09:27:41;;;;;;;6.40;4.53;;;20.90;99.90;;;;;;4946956;28;20144;-51
2023/07/28 09:30:07;;;;;;;5.82;4.15;;;20.90;99.90;;;;;;4944462;28;20051;-60
2023/07/28 09:32:35;;;;;;;5.63;4.75;;;21.10;99.90;;;;;;4945486;28;20062;-58
2023/07/28 09:35:12;;;;;;;5.15;4.00;;;21.30;99.90;;;;;;4944351;28;20094;-58
2023/07/28 09:37:43;;;;;;;4.20;3.80;;;21.40;99.90;;;;;;4946375;28;20181;-59
2023/07/28 09:40:14;;;;;;;4.43;3.90;;;21.60;99.90;;;;;;4948327;28;20569;-57
2023/07/28 09:42:40;;;;;;;4.68;4.28;;;21.50;99.90;;;;;;4951274;28;20241;-59
2023/07/28 09:45:08;;;;;;;4.63;3.55;;;21.60;99.90;;;;;;4925921;28;21105;-58
2023/07/28 09:47:38;;;;;;;5.32;3.40;;;21.70;99.90;;;;;;4946585;28;20062;-58
2023/07/28 09:50:06;;;;;;;19.00;3.80;;;22.00;99.90;;;;;;4948138;28;20061;-58
2023/07/28 09:52:43;;;;;;;3.95;3.47;;;22.20;99.90;;;;;;4946561;28;20046;-58
2023/07/28 09:55:12;;;;;;;4.07;3.67;;;22.20;99.90;;;;;;4949206;28;20046;-58
2023/07/28 09:57:45;;;;;;;4.72;4.10;;;22.20;99.90;;;;;;4946895;28;20053;-58
2023/07/28 10:00:13;;;;;;;5.00;4.43;;;22.10;99.90;;;;;;4949280;28;20072;-57
2023/07/28 10:02:40;;;;;;;5.03;3.70;;;22.30;99.90;;;;;;4938311;28;20043;-57
2023/07/28 10:05:07;;;;;;;5.60;4.07;;;22.40;99.90;;;;;;4946598;28;20047;-58
2023/07/28 10:07:39;;;;;;;3.42;3.13;;;22.70;99.90;;;;;;4938673;28;20370;-57
2023/07/28 10:10:07;;;;;;;4.10;3.38;;;22.80;99.90;;;;;;4942990;28;20050;-59
2023/07/28 10:12:46;;;;;;;3.70;3.05;;;22.70;99.90;;;;;;4945644;28;20122;-59
2023/07/28 10:15:17;;;;;;;4.10;3.70;;;22.70;99.90;;;;;;4932854;28;20042;-57
2023/07/28 10:17:47;;;;;;;4.40;3.70;;;22.60;99.90;;;;;;4941638;28;20043;-57
2023/07/28 10:20:35;;;;;;;4.10;3.80;;;22.70;99.90;;;;;;4939846;28;20051;-59
2023/07/28 10:23:20;;;;;;;8.35;3.42;;;23.00;99.90;;;;;;4935065;28;20051;-58
2023/07/28 10:25:46;;;;;;;3.72;3.40;;;23.20;99.90;;;;;;4952961;28;20059;-58
2023/07/28 10:28:32;;;;;;;6.15;3.38;;;23.20;99.90;;;;;;4953839;28;20512;-58
2023/07/28 10:30:59;;;;;;;4.22;3.70;;;23.20;99.90;;;;;;4951516;28;20050;-59
2023/07/28 10:33:34;;;;;;;4.18;3.78;;;23.10;99.90;;;;;;4958733;28;20046;-59
2023/07/28 10:36:29;;;;;;;5.55;4.15;;;23.10;99.90;;;;;;4951498;28;20047;-58
2023/07/28 10:39:11;;;;;;;3.95;3.55;;;23.20;99.90;;;;;;4930882;28;20580;-57
2023/07/28 10:41:37;;;;;;;5.13;3.85;;;23.40;99.90;;;;;;4952107;28;20062;-58
2023/07/28 10:44:03;;;;;;;3.90;3.60;;;23.50;99.90;;;;;;4950845;28;20035;-58
2023/07/28 10:46:29;;;;;;;3.88;3.58;;;23.50;99.90;;;;;;4951319;28;20087;-58
2023/07/28 10:48:55;;;;;;;3.33;2.85;;;23.40;99.90;;;;;;4953945;28;20053;-59
2023/07/28 10:51:24;;;;;;;4.97;3.28;;;23.30;99.90;;;;;;4956364;28;20035;-60
2023/07/28 10:53:51;;;;;;;3.30;3.00;;;23.20;99.90;;;;;;4950357;28;20043;-58
2023/07/28 10:56:18;;;;;;;3.58;2.60;;;23.10;99.90;;;;;;4931044;28;20035;-58
2023/07/28 10:58:44;;;;;;;4.18;2.70;;;23.10;99.90;;;;;;4933061;28;20045;-57
2023/07/28 11:01:10;;;;;;;6.05;4.18;;;23.30;99.90;;;;;;4946853;28;20062;-58
2023/07/28 11:03:36;;;;;;;3.78;3.47;;;23.50;99.90;;;;;;4941502;28;20043;-58
2023/07/28 11:06:03;;;;;;;4.45;2.33;;;23.50;99.90;;;;;;4944973;28;20046;-58
2023/07/28 11:08:29;;;;;;;4.55;2.40;;;23.60;99.90;;;;;;4952374;28;22052;-57
2023/07/28 11:10:55;;;;;;;2.95;2.10;;;23.90;99.90;;;;;;4938673;28;20059;-58
2023/07/28 11:13:22;;;;;;;5.78;2.22;;;23.90;99.90;;;;;;4952710;28;20042;-58
2023/07/28 11:15:48;;;;;;;6.25;2.53;;;23.90;99.90;;;;;;4952063;28;20050;-55
2023/07/28 11:18:15;;;;;;;3.67;2.10;;;24.00;99.90;;;;;;4944845;28;20039;-59
2023/07/28 11:20:42;;;;;;;2.20;2.00;;;24.20;99.90;;;;;;4950035;28;20051;-58
2023/07/28 11:23:08;;;;;;;3.25;2.35;;;24.20;99.90;;;;;;4928739;28;20090;-58
2023/07/28 11:25:35;;;;;;;2.45;2.13;;;24.20;99.90;;;;;;4938787;28;21076;-57
2023/07/28 11:28:05;;;;;;;3.08;2.70;;;24.20;99.90;;;;;;4941159;28;20132;-57
2023/07/28 11:30:32;;;;;;;3.10;2.65;;;24.40;99.90;;;;;;4939938;28;20525;-58
2023/07/28 11:32:58;;;;;;;3.67;2.70;;;24.60;99.90;;;;;;4931626;28;20237;-59
2023/07/28 11:35:23;;;;;;;5.03;2.60;;;24.80;99.90;;;;;;4948373;28;20058;-58
2023/07/28 11:37:52;;;;;;;2.83;2.22;;;25.10;99.90;;;;;;4954249;28;20058;-58
2023/07/28 11:40:20;;;;;;;3.58;2.05;;;25.40;99.90;;;;;;4957441;28;20047;-56
2023/07/28 11:42:49;;;;;;;2.13;1.85;;;25.70;99.90;;;;;;4954955;28;20051;-58
2023/07/28 11:45:22;;;;;;;17.00;1.90;;;25.90;99.90;;;;;;4941082;28;20137;-58
2023/07/28 11:47:58;;;;;;;1.70;1.60;;;26.00;99.90;;;;;;4957358;28;20049;-58
2023/07/28 11:50:34;;;;;;;1.83;1.73;;;25.90;99.90;;;;;;4953738;28;20133;-58
2023/07/28 11:53:00;;;;;;;3.15;1.63;;;25.70;99.90;;;;;;4950190;28;20046;-58
2023/07/28 11:55:26;;;;;;;3.25;1.80;;;25.60;99.90;;;;;;4952766;28;20089;-57
2023/07/28 11:57:53;;;;;;;2.45;1.80;;;25.70;99.90;;;;;;4934944;28;20113;-58
2023/07/28 12:00:29;;;;;;;2.58;1.92;;;25.70;99.90;;;;;;4950660;28;20051;-57
2023/07/28 12:03:10;;;;;;;3.25;1.98;;;25.90;99.90;;;;;;4950834;28;20039;-58
2023/07/28 12:05:38;;;;;;;3.10;2.15;;;26.00;99.90;;;;;;4950871;28;20058;-58
2023/07/28 12:08:04;;;;;;;2.22;1.50;;;26.10;99.90;;;;;;4938826;28;21866;-57
2023/07/28 12:10:33;;;;;;;3.67;2.25;;;26.20;99.90;;;;;;4951740;28;20053;-58
2023/07/28 12:13:05;;;;;;;2.85;1.60;;;26.30;99.90;;;;;;4951936;28;20047;-57
2023/07/28 12:15:31;;;;;;;1.83;1.73;;;26.70;99.90;;;;;;4941182;28;20035;-59
2023/07/28 12:18:10;;;;;;;3.63;1.63;;;26.90;99.90;;;;;;4950771;28;20046;-58
2023/07/28 12:20:38;;;;;;;4.90;1.70;;;27.10;99.90;;;;;;4952515;28;20058;-57
2023/07/28 12:23:08;;;;;;;2.33;1.45;;;27.20;99.90;;;;;;4949746;28;20523;-58
2023/07/28 12:25:36;;;;;;;1.70;1.25;;;27.40;99.70;;;;;;4937095;28;20358;-58
2023/07/28 12:28:02;;;;;;;5.32;1.40;;;27.30;99.30;;;;;;4950401;28;20105;-58
2023/07/28 12:30:28;;;;;;;2.05;1.70;;;27.20;98.70;;;;;;4953223;28;20414;-59
2023/07/28 12:32:54;;;;;;;2.20;1.58;;;27.10;98.70;;;;;;4942245;28;20037;-59
2023/07/28 12:35:23;;;;;;;1.73;1.60;;;26.80;98.70;;;;;;4949043;28;20042;-57
2023/07/28 12:37:51;;;;;;;2.15;1.70;;;26.50;98.90;;;;;;4949870;28;20050;-59